Schnellsuche:     vonnach     am:               Ankunft heute   Abflug heute   
Wetterdaten des Sylter Flughafens. Alle Angaben sind ohne Gewähr.



Datum: 2017-08-17 23:00 UTC
   
Windrichtung: 230°
Windgeschwindigkeit: 9 - 17 Kt.
QNH: 1010 hPa
Temperatur: 18 °C
Taupunkt: 18 °C
rel. Luftfeuchte: 99 %

METAR EDXW 171650Z 22015KT 9999 FEW009 BKN180 18/16 Q1011 RMK ATIS BRA=

Wolkenhöhen in den letzten 48 Stunden:






 


Im Jettempo nach Sylt!



Rhein-Neckar-Air

Mannheim
Die Rhein-Neckar-Air fliegt vom 05. April bis zum 14. Oktober 2017 nach Mannheim. Zur Seite der Rhein-Neckar-Air: www.flyRNA.de

airberlin

Zürich, Stuttgart, München und Düsseldorf
Die airberlin fliegt vom 19. August bis zum 27. Oktober 2018 nach Zürich, vom 19. August bis zum 27. Oktober 2018 nach Stuttgart, vom 19. August bis zum 28. Oktober 2017 nach München und vom 17. August bis zum 27. Oktober 2018 nach Düsseldorf. Zur Seite der airberlin: www.airberlin.com

Lufthansa

München, Frankfurt/Main und Zürich
Die Lufthansa fliegt vom 19. August bis zum 07. Oktober 2018 nach München, vom 19. August bis zum 13. Oktober 2018 nach Frankfurt/Main und vom 04. Juli bis zum 29. September 2018 nach Zürich. Zur Seite der Lufthansa: www.lufthansa.de

Syltair

Hamburg
Die Syltair fliegt vom 13. April bis zum 04. Oktober 2017 nach Hamburg. Zur Seite der Syltair: www.syltair.de